sensor_id;sensor_type;location;lat;lon;timestamp;pressure;altitude;pressure_sealevel;temperature;humidity
56040;BME280;43937;41.366;2.072;2023-12-20T00:05:11;101415.78;;;11.33;49.35
56040;BME280;43937;41.366;2.072;2023-12-20T00:11:20;101383.22;;;11.31;48.79
56040;BME280;43937;41.366;2.072;2023-12-20T00:16:52;101366.56;;;11.16;48.96
56040;BME280;43937;41.366;2.072;2023-12-20T00:27:19;101375.63;;;11.17;49.72
56040;BME280;43937;41.366;2.072;2023-12-20T00:31:33;101382.22;;;10.96;49.95
56040;BME280;43937;41.366;2.072;2023-12-20T00:34:22;101376.81;;;10.87;50.21
56040;BME280;43937;41.366;2.072;2023-12-20T00:40:14;101341.09;;;10.72;50.01
56040;BME280;43937;41.366;2.072;2023-12-20T00:52:37;101345.06;;;10.77;50.41
56040;BME280;43937;41.366;2.072;2023-12-20T00:55:02;101330.81;;;10.66;50.26
56040;BME280;43937;41.366;2.072;2023-12-20T00:57:29;101338.22;;;10.91;50.19
56040;BME280;43937;41.366;2.072;2023-12-20T00:59:54;101320.78;;;10.84;50.46
56040;BME280;43937;41.366;2.072;2023-12-20T01:04:07;101339.72;;;11.04;50.38
56040;BME280;43937;41.366;2.072;2023-12-20T01:09:23;101317.53;;;10.81;50.69
56040;BME280;43937;41.366;2.072;2023-12-20T01:12:58;101334.25;;;11.04;50.83
56040;BME280;43937;41.366;2.072;2023-12-20T01:16:12;101322.81;;;11.00;50.17
56040;BME280;43937;41.366;2.072;2023-12-20T01:22:37;101348.59;;;11.06;51.12
56040;BME280;43937;41.366;2.072;2023-12-20T01:25:03;101336.13;;;10.85;51.06
56040;BME280;43937;41.366;2.072;2023-12-20T01:30:43;101326.66;;;10.62;51.24
56040;BME280;43937;41.366;2.072;2023-12-20T01:35:54;101331.41;;;10.60;51.17
56040;BME280;43937;41.366;2.072;2023-12-20T01:38:20;101353.69;;;10.73;50.84
56040;BME280;43937;41.366;2.072;2023-12-20T01:41:21;101361.13;;;10.71;51.91
56040;BME280;43937;41.366;2.072;2023-12-20T01:46:17;101368.06;;;10.65;51.68
56040;BME280;43937;41.366;2.072;2023-12-20T01:50:43;101338.69;;;10.41;52.00
56040;BME280;43937;41.366;2.072;2023-12-20T01:53:12;101365.91;;;10.41;52.00
56040;BME280;43937;41.366;2.072;2023-12-20T02:00:17;101344.94;;;10.51;52.26
56040;BME280;43937;41.366;2.072;2023-12-20T02:08:38;101348.59;;;10.60;52.10
56040;BME280;43937;41.366;2.072;2023-12-20T02:17:40;101363.56;;;10.46;52.18
56040;BME280;43937;41.366;2.072;2023-12-20T02:21:14;101361.97;;;10.81;51.51
56040;BME280;43937;41.366;2.072;2023-12-20T02:23:40;101338.59;;;10.78;51.15
56040;BME280;43937;41.366;2.072;2023-12-20T02:32:18;101387.16;;;10.83;51.70
56040;BME280;43937;41.366;2.072;2023-12-20T02:38:20;101408.53;;;10.50;52.37
56040;BME280;43937;41.366;2.072;2023-12-20T02:40:46;101393.13;;;10.41;52.53
56040;BME280;43937;41.366;2.072;2023-12-20T02:43:11;101386.25;;;10.37;52.60
56040;BME280;43937;41.366;2.072;2023-12-20T02:46:33;101378.97;;;10.28;52.79
56040;BME280;43937;41.366;2.072;2023-12-20T02:49:38;101395.47;;;10.26;52.56
56040;BME280;43937;41.366;2.072;2023-12-20T03:03:21;101416.38;;;10.63;51.99
56040;BME280;43937;41.366;2.072;2023-12-20T03:05:47;101401.06;;;10.62;52.10
56040;BME280;43937;41.366;2.072;2023-12-20T03:11:27;101387.88;;;10.58;51.88
56040;BME280;43937;41.366;2.072;2023-12-20T03:17:37;101381.22;;;10.42;52.06
56040;BME280;43937;41.366;2.072;2023-12-20T03:20:03;101338.31;;;10.26;53.00
56040;BME280;43937;41.366;2.072;2023-12-20T03:29:34;101334.84;;;10.34;52.79
56040;BME280;43937;41.366;2.072;2023-12-20T03:34:24;101375.66;;;10.34;52.46
56040;BME280;43937;41.366;2.072;2023-12-20T03:41:14;101361.31;;;9.85;53.94
56040;BME280;43937;41.366;2.072;2023-12-20T03:46:49;101364.16;;;10.03;54.00
56040;BME280;43937;41.366;2.072;2023-12-20T03:49:15;101374.84;;;10.04;54.17
56040;BME280;43937;41.366;2.072;2023-12-20T03:51:40;101352.03;;;9.88;53.67
56040;BME280;43937;41.366;2.072;2023-12-20T03:54:07;101376.34;;;9.99;53.73
56040;BME280;43937;41.366;2.072;2023-12-20T03:58:26;101350.19;;;9.78;53.80
56040;BME280;43937;41.366;2.072;2023-12-20T04:00:51;101342.03;;;9.78;53.77
56040;BME280;43937;41.366;2.072;2023-12-20T04:07:38;101382.50;;;9.91;54.03
56040;BME280;43937;41.366;2.072;2023-12-20T04:11:52;101365.91;;;9.84;53.68
56040;BME280;43937;41.366;2.072;2023-12-20T04:14:17;101358.56;;;9.95;53.46
56040;BME280;43937;41.366;2.072;2023-12-20T04:18:32;101374.63;;;9.88;53.96
56040;BME280;43937;41.366;2.072;2023-12-20T04:26:55;101381.53;;;9.63;54.28
56040;BME280;43937;41.366;2.072;2023-12-20T04:32:26;101385.66;;;9.77;54.24
56040;BME280;43937;41.366;2.072;2023-12-20T04:40:48;101373.50;;;9.81;54.09
56040;BME280;43937;41.366;2.072;2023-12-20T04:43:14;101350.31;;;9.77;53.73
56040;BME280;43937;41.366;2.072;2023-12-20T04:45:43;101343.56;;;9.91;53.42
56040;BME280;43937;41.366;2.072;2023-12-20T04:50:01;101381.06;;;9.97;53.37
56040;BME280;43937;41.366;2.072;2023-12-20T04:58:22;101397.97;;;9.61;54.76
56040;BME280;43937;41.366;2.072;2023-12-20T05:08:39;101396.69;;;9.85;53.54
56040;BME280;43937;41.366;2.072;2023-12-20T05:12:53;101362.63;;;9.81;52.62
56040;BME280;43937;41.366;2.072;2023-12-20T05:18:15;101247.78;;;9.03;53.62
56040;BME280;43937;41.366;2.072;2023-12-20T05:21:22;101357.81;;;9.55;53.43
56040;BME280;43937;41.366;2.072;2023-12-20T05:25:52;101331.81;;;9.14;54.35
56040;BME280;43937;41.366;2.072;2023-12-20T05:29:57;101309.66;;;9.18;54.01
56040;BME280;43937;41.366;2.072;2023-12-20T05:37:23;101364.94;;;9.47;54.80
56040;BME280;43937;41.366;2.072;2023-12-20T05:43:06;101358.56;;;9.38;54.94
56040;BME280;43937;41.366;2.072;2023-12-20T05:46:26;101296.91;;;9.19;54.13
56040;BME280;43937;41.366;2.072;2023-12-20T05:53:04;101325.81;;;9.30;53.66
56040;BME280;43937;41.366;2.072;2023-12-20T05:56:06;101312.75;;;9.43;53.51
56040;BME280;43937;41.366;2.072;2023-12-20T05:58:32;101351.25;;;9.48;53.61
56040;BME280;43937;41.366;2.072;2023-12-20T06:03:41;101338.22;;;9.52;53.62
56040;BME280;43937;41.366;2.072;2023-12-20T06:06:43;101335.19;;;9.55;54.04
56040;BME280;43937;41.366;2.072;2023-12-20T06:09:57;101300.06;;;9.34;54.16
56040;BME280;43937;41.366;2.072;2023-12-20T06:12:22;101344.91;;;9.67;53.84
56040;BME280;43937;41.366;2.072;2023-12-20T06:19:35;101324.28;;;9.84;53.78
56040;BME280;43937;41.366;2.072;2023-12-20T06:22:00;101310.44;;;9.68;54.33
56040;BME280;43937;41.366;2.072;2023-12-20T06:26:35;101324.00;;;9.68;54.57
56040;BME280;43937;41.366;2.072;2023-12-20T06:31:36;101316.34;;;9.53;54.93
56040;BME280;43937;41.366;2.072;2023-12-20T06:36:31;101296.84;;;9.68;54.26
56040;BME280;43937;41.366;2.072;2023-12-20T06:40:25;101308.69;;;9.76;54.33
56040;BME280;43937;41.366;2.072;2023-12-20T06:44:42;101314.19;;;9.57;55.24
56040;BME280;43937;41.366;2.072;2023-12-20T06:52:54;101289.81;;;9.75;55.03
56040;BME280;43937;41.366;2.072;2023-12-20T06:59:40;101305.13;;;9.76;56.08
56040;BME280;43937;41.366;2.072;2023-12-20T07:03:39;101324.06;;;9.95;55.89
56040;BME280;43937;41.366;2.072;2023-12-20T07:08:09;101311.06;;;9.99;55.27
56040;BME280;43937;41.366;2.072;2023-12-20T07:13:09;101322.00;;;9.79;56.20
56040;BME280;43937;41.366;2.072;2023-12-20T07:15:34;101301.97;;;9.71;56.14
56040;BME280;43937;41.366;2.072;2023-12-20T07:20:48;101213.75;;;8.89;56.84
56040;BME280;43937;41.366;2.072;2023-12-20T07:23:13;101259.50;;;9.03;57.10
56040;BME280;43937;41.366;2.072;2023-12-20T07:28:33;101316.34;;;9.44;56.87
56040;BME280;43937;41.366;2.072;2023-12-20T07:30:59;101296.91;;;9.38;57.21
56040;BME280;43937;41.366;2.072;2023-12-20T07:33:24;101286.19;;;9.27;57.05
56040;BME280;43937;41.366;2.072;2023-12-20T07:36:49;101198.22;;;8.71;57.34
56040;BME280;43937;41.366;2.072;2023-12-20T07:39:15;101313.78;;;9.42;57.53
56040;BME280;43937;41.366;2.072;2023-12-20T07:44:54;101285.06;;;8.91;57.54
56040;BME280;43937;41.366;2.072;2023-12-20T07:47:20;101303.75;;;8.55;58.94
56040;BME280;43937;41.366;2.072;2023-12-20T07:49:48;101286.91;;;8.61;58.71
56040;BME280;43937;41.366;2.072;2023-12-20T07:52:14;101317.50;;;8.83;58.46
56040;BME280;43937;41.366;2.072;2023-12-20T07:54:41;101333.38;;;8.97;59.29
56040;BME280;43937;41.366;2.072;2023-12-20T07:57:06;101332.94;;;8.92;58.59
56040;BME280;43937;41.366;2.072;2023-12-20T07:59:32;101350.78;;;8.94;58.71
56040;BME280;43937;41.366;2.072;2023-12-20T08:01:57;101324.06;;;8.80;58.59
56040;BME280;43937;41.366;2.072;2023-12-20T08:05:43;101336.28;;;8.55;59.19
56040;BME280;43937;41.366;2.072;2023-12-20T08:08:08;101357.50;;;8.81;58.37
56040;BME280;43937;41.366;2.072;2023-12-20T08:13:47;101363.34;;;8.76;58.77
56040;BME280;43937;41.366;2.072;2023-12-20T08:16:13;101366.06;;;8.76;59.79
56040;BME280;43937;41.366;2.072;2023-12-20T08:18:59;101331.22;;;8.71;58.74
56040;BME280;43937;41.366;2.072;2023-12-20T08:21:44;101321.38;;;8.90;58.20
56040;BME280;43937;41.366;2.072;2023-12-20T08:24:10;101376.56;;;9.39;58.00
56040;BME280;43937;41.366;2.072;2023-12-20T08:27:56;101367.38;;;9.50;57.84
56040;BME280;43937;41.366;2.072;2023-12-20T08:30:21;101341.09;;;9.50;57.32
56040;BME280;43937;41.366;2.072;2023-12-20T08:36:43;101355.69;;;11.78;52.77
56040;BME280;43937;41.366;2.072;2023-12-20T08:42:59;101321.84;;;13.65;46.74
56040;BME280;43937;41.366;2.072;2023-12-20T08:47:49;101320.00;;;11.89;51.01
56040;BME280;43937;41.366;2.072;2023-12-20T09:03:41;101352.56;;;10.93;53.98
56040;BME280;43937;41.366;2.072;2023-12-20T09:08:17;101361.72;;;11.10;54.12
56040;BME280;43937;41.366;2.072;2023-12-20T09:34:48;101416.63;;;12.65;47.89
56040;BME280;43937;41.366;2.072;2023-12-20T09:42:21;101373.22;;;12.54;47.90
56040;BME280;43937;41.366;2.072;2023-12-20T09:44:49;101397.50;;;12.65;47.26
56040;BME280;43937;41.366;2.072;2023-12-20T09:53:21;101400.56;;;13.21;46.63
56040;BME280;43937;41.366;2.072;2023-12-20T09:56:59;101387.34;;;12.92;46.90
56040;BME280;43937;41.366;2.072;2023-12-20T10:09:19;101387.72;;;13.05;46.54
56040;BME280;43937;41.366;2.072;2023-12-20T10:22:37;101358.34;;;13.07;46.45
56040;BME280;43937;41.366;2.072;2023-12-20T10:30:01;101342.25;;;12.88;47.03
56040;BME280;43937;41.366;2.072;2023-12-20T10:40:36;101364.34;;;13.19;46.62
56040;BME280;43937;41.366;2.072;2023-12-20T10:44:51;101340.56;;;13.03;46.63
56040;BME280;43937;41.366;2.072;2023-12-20T10:48:35;101341.09;;;13.15;46.10
56040;BME280;43937;41.366;2.072;2023-12-20T11:01:28;101322.81;;;13.97;44.38
56040;BME280;43937;41.366;2.072;2023-12-20T11:04:06;101339.75;;;13.92;44.53
56040;BME280;43937;41.366;2.072;2023-12-20T11:21:40;101270.09;;;14.42;42.45
56040;BME280;43937;41.366;2.072;2023-12-20T11:28:33;101279.59;;;14.24;43.26
56040;BME280;43937;41.366;2.072;2023-12-20T11:41:07;101277.44;;;14.50;42.99
56040;BME280;43937;41.366;2.072;2023-12-20T11:44:08;101297.81;;;14.56;43.01
56040;BME280;43937;41.366;2.072;2023-12-20T11:46:34;101230.38;;;14.47;43.32
56040;BME280;43937;41.366;2.072;2023-12-20T11:54:46;101265.47;;;14.51;43.80
56040;BME280;43937;41.366;2.072;2023-12-20T12:00:24;101279.78;;;14.22;44.50
56040;BME280;43937;41.366;2.072;2023-12-20T12:16:20;101208.94;;;14.58;43.61
56040;BME280;43937;41.366;2.072;2023-12-20T12:18:45;101210.75;;;14.66;43.70
56040;BME280;43937;41.366;2.072;2023-12-20T12:23:25;101168.13;;;14.86;43.35
56040;BME280;43937;41.366;2.072;2023-12-20T12:26:25;101192.41;;;15.27;42.51
56040;BME280;43937;41.366;2.072;2023-12-20T12:31:15;101221.38;;;14.92;43.25
56040;BME280;43937;41.366;2.072;2023-12-20T12:33:41;101229.94;;;14.89;43.78
56040;BME280;43937;41.366;2.072;2023-12-20T12:51:25;101177.06;;;14.57;45.01
56040;BME280;43937;41.366;2.072;2023-12-20T12:57:31;101146.94;;;14.57;45.35
56040;BME280;43937;41.366;2.072;2023-12-20T13:16:59;101133.31;;;14.72;45.78
56040;BME280;43937;41.366;2.072;2023-12-20T13:25:29;101157.53;;;14.83;45.83
56040;BME280;43937;41.366;2.072;2023-12-20T13:31:29;101129.34;;;14.52;46.58
56040;BME280;43937;41.366;2.072;2023-12-20T13:39:21;101134.28;;;14.56;47.32
56040;BME280;43937;41.366;2.072;2023-12-20T13:53:17;101104.81;;;14.96;46.52
56040;BME280;43937;41.366;2.072;2023-12-20T13:57:25;101114.66;;;15.05;45.62
56040;BME280;43937;41.366;2.072;2023-12-20T14:13:19;101130.78;;;15.53;44.79
56040;BME280;43937;41.366;2.072;2023-12-20T14:16:27;101131.25;;;15.56;44.74
56040;BME280;43937;41.366;2.072;2023-12-20T14:26:19;101125.28;;;15.83;44.02
56040;BME280;43937;41.366;2.072;2023-12-20T14:31:58;101124.63;;;15.80;44.69
56040;BME280;43937;41.366;2.072;2023-12-20T14:36:11;101116.16;;;15.97;44.45
56040;BME280;43937;41.366;2.072;2023-12-20T14:40:28;101118.97;;;16.03;44.29
56040;BME280;43937;41.366;2.072;2023-12-20T14:43:07;101126.09;;;16.34;43.55
56040;BME280;43937;41.366;2.072;2023-12-20T14:47:27;101120.78;;;16.33;43.71
56040;BME280;43937;41.366;2.072;2023-12-20T15:00:50;101109.56;;;16.49;43.54
56040;BME280;43937;41.366;2.072;2023-12-20T15:04:46;101129.88;;;16.55;42.99
56040;BME280;43937;41.366;2.072;2023-12-20T15:11:18;101104.91;;;16.28;43.05
56040;BME280;43937;41.366;2.072;2023-12-20T15:16:52;101146.25;;;16.63;42.34
56040;BME280;43937;41.366;2.072;2023-12-20T15:21:18;101108.84;;;16.40;42.73
56040;BME280;43937;41.366;2.072;2023-12-20T15:28:50;101150.69;;;16.42;43.59
56040;BME280;43937;41.366;2.072;2023-12-20T15:31:47;101152.91;;;16.32;44.35
56040;BME280;43937;41.366;2.072;2023-12-20T15:34:14;101144.31;;;16.20;44.51
56040;BME280;43937;41.366;2.072;2023-12-20T15:43:33;101141.00;;;15.74;45.08
56040;BME280;43937;41.366;2.072;2023-12-20T15:45:59;101157.94;;;15.77;45.05
56040;BME280;43937;41.366;2.072;2023-12-20T15:49:54;101151.69;;;15.69;45.19
56040;BME280;43937;41.366;2.072;2023-12-20T15:57:05;101146.19;;;15.39;45.46
56040;BME280;43937;41.366;2.072;2023-12-20T16:07:57;101185.19;;;15.11;46.93
56040;BME280;43937;41.366;2.072;2023-12-20T16:14:36;101177.94;;;14.81;47.37
56040;BME280;43937;41.366;2.072;2023-12-20T16:20:29;101169.06;;;14.56;47.75
56040;BME280;43937;41.366;2.072;2023-12-20T16:28:26;101170.44;;;14.52;47.60
56040;BME280;43937;41.366;2.072;2023-12-20T16:30:51;101169.59;;;14.43;47.64
56040;BME280;43937;41.366;2.072;2023-12-20T16:36:06;101167.97;;;14.34;47.04
56040;BME280;43937;41.366;2.072;2023-12-20T16:45:52;101186.13;;;14.35;45.49
56040;BME280;43937;41.366;2.072;2023-12-20T16:49:41;101185.56;;;14.39;43.77
56040;BME280;43937;41.366;2.072;2023-12-20T16:52:06;101177.69;;;14.36;43.57
56040;BME280;43937;41.366;2.072;2023-12-20T16:55:04;101180.00;;;14.25;44.09
56040;BME280;43937;41.366;2.072;2023-12-20T16:58:57;101192.69;;;14.17;43.44
56040;BME280;43937;41.366;2.072;2023-12-20T17:04:22;101195.13;;;14.12;43.33
56040;BME280;43937;41.366;2.072;2023-12-20T17:12:19;101198.31;;;13.93;43.34
56040;BME280;43937;41.366;2.072;2023-12-20T17:15:21;101123.56;;;13.53;43.84
56040;BME280;43937;41.366;2.072;2023-12-20T17:20:40;101207.06;;;13.80;43.59
56040;BME280;43937;41.366;2.072;2023-12-20T17:28:57;101216.16;;;13.72;44.02
56040;BME280;43937;41.366;2.072;2023-12-20T17:35:53;101226.25;;;13.64;43.54
56040;BME280;43937;41.366;2.072;2023-12-20T17:38:18;101227.78;;;13.66;44.19
56040;BME280;43937;41.366;2.072;2023-12-20T17:42:36;101251.38;;;13.75;44.18
56040;BME280;43937;41.366;2.072;2023-12-20T17:49:21;101234.13;;;13.67;44.16
56040;BME280;43937;41.366;2.072;2023-12-20T17:51:47;101254.16;;;13.51;44.38
56040;BME280;43937;41.366;2.072;2023-12-20T17:55:23;101254.00;;;13.52;44.23
56040;BME280;43937;41.366;2.072;2023-12-20T17:58:10;101271.25;;;13.53;44.73
56040;BME280;43937;41.366;2.072;2023-12-20T18:01:49;101283.91;;;13.54;44.86
56040;BME280;43937;41.366;2.072;2023-12-20T18:06:47;101283.03;;;13.37;45.40
56040;BME280;43937;41.366;2.072;2023-12-20T18:12:59;101276.06;;;13.26;44.67
56040;BME280;43937;41.366;2.072;2023-12-20T18:15:25;101277.22;;;13.40;45.06
56040;BME280;43937;41.366;2.072;2023-12-20T18:20:33;101262.19;;;13.20;44.58
56040;BME280;43937;41.366;2.072;2023-12-20T18:23:33;101281.53;;;13.26;45.40
56040;BME280;43937;41.366;2.072;2023-12-20T18:26:42;101287.84;;;13.27;44.43
56040;BME280;43937;41.366;2.072;2023-12-20T18:33:06;101286.63;;;13.13;44.28
56040;BME280;43937;41.366;2.072;2023-12-20T18:41:56;101324.94;;;13.29;43.86
56040;BME280;43937;41.366;2.072;2023-12-20T18:52:07;101314.16;;;13.28;43.75
56040;BME280;43937;41.366;2.072;2023-12-20T19:09:17;101355.13;;;13.12;43.77
56040;BME280;43937;41.366;2.072;2023-12-20T19:14:02;101358.50;;;13.05;43.70
56040;BME280;43937;41.366;2.072;2023-12-20T19:16:28;101319.03;;;12.83;43.46
56040;BME280;43937;41.366;2.072;2023-12-20T19:19:46;101356.78;;;12.96;43.92
56040;BME280;43937;41.366;2.072;2023-12-20T19:24:22;101357.97;;;12.94;43.67
56040;BME280;43937;41.366;2.072;2023-12-20T19:26:47;101343.63;;;12.92;43.64
56040;BME280;43937;41.366;2.072;2023-12-20T19:30:57;101373.00;;;12.98;43.67
56040;BME280;43937;41.366;2.072;2023-12-20T19:33:26;101346.34;;;12.83;43.46
56040;BME280;43937;41.366;2.072;2023-12-20T19:35:53;101372.66;;;13.01;43.39
56040;BME280;43937;41.366;2.072;2023-12-20T19:38:18;101338.16;;;12.83;42.94
56040;BME280;43937;41.366;2.072;2023-12-20T19:43:11;101373.31;;;12.78;43.49
56040;BME280;43937;41.366;2.072;2023-12-20T19:46:50;101370.19;;;12.73;43.15
56040;BME280;43937;41.366;2.072;2023-12-20T19:49:16;101376.22;;;12.77;43.71
56040;BME280;43937;41.366;2.072;2023-12-20T19:51:41;101386.47;;;12.83;43.59
56040;BME280;43937;41.366;2.072;2023-12-20T19:54:07;101374.34;;;12.77;42.65
56040;BME280;43937;41.366;2.072;2023-12-20T19:58:00;101358.72;;;12.61;43.39
56040;BME280;43937;41.366;2.072;2023-12-20T20:07:10;101374.28;;;12.69;42.84
56040;BME280;43937;41.366;2.072;2023-12-20T20:13:21;101369.16;;;12.66;43.23
56040;BME280;43937;41.366;2.072;2023-12-20T20:15:47;101386.78;;;12.72;43.61
56040;BME280;43937;41.366;2.072;2023-12-20T20:19:17;101393.28;;;12.79;43.17
56040;BME280;43937;41.366;2.072;2023-12-20T20:27:21;101366.03;;;12.95;42.63
56040;BME280;43937;41.366;2.072;2023-12-20T20:33:06;101378.91;;;12.69;43.35
56040;BME280;43937;41.366;2.072;2023-12-20T20:38:06;101384.47;;;12.51;43.04
56040;BME280;43937;41.366;2.072;2023-12-20T20:44:14;101432.94;;;12.83;42.71
56040;BME280;43937;41.366;2.072;2023-12-20T20:48:33;101439.16;;;12.67;43.26
56040;BME280;43937;41.366;2.072;2023-12-20T20:53:25;101430.19;;;12.49;43.82
56040;BME280;43937;41.366;2.072;2023-12-20T20:57:58;101434.34;;;12.61;42.67
56040;BME280;43937;41.366;2.072;2023-12-20T21:02:56;101430.44;;;12.64;42.85
56040;BME280;43937;41.366;2.072;2023-12-20T21:07:52;101413.13;;;12.47;41.53
56040;BME280;43937;41.366;2.072;2023-12-20T21:16:14;101440.00;;;12.68;40.84
56040;BME280;43937;41.366;2.072;2023-12-20T21:18:40;101425.16;;;12.70;41.12
56040;BME280;43937;41.366;2.072;2023-12-20T21:22:15;101408.44;;;12.65;41.15
56040;BME280;43937;41.366;2.072;2023-12-20T21:24:40;101424.34;;;12.78;41.16
56040;BME280;43937;41.366;2.072;2023-12-20T21:36:02;101445.81;;;12.12;43.74
56040;BME280;43937;41.366;2.072;2023-12-20T21:40:28;101464.38;;;11.73;44.96
56040;BME280;43937;41.366;2.072;2023-12-20T21:48:33;101467.19;;;11.81;42.81
56040;BME280;43937;41.366;2.072;2023-12-20T21:51:45;101436.88;;;11.84;42.07
56040;BME280;43937;41.366;2.072;2023-12-20T21:59:18;101440.63;;;12.01;41.36
56040;BME280;43937;41.366;2.072;2023-12-20T22:03:44;101415.06;;;11.84;41.11
56040;BME280;43937;41.366;2.072;2023-12-20T22:07:59;101445.91;;;12.03;40.77
56040;BME280;43937;41.366;2.072;2023-12-20T22:11:46;101454.88;;;11.95;41.80
56040;BME280;43937;41.366;2.072;2023-12-20T22:14:11;101450.75;;;11.37;44.30
56040;BME280;43937;41.366;2.072;2023-12-20T22:20:06;101454.56;;;11.27;44.03
56040;BME280;43937;41.366;2.072;2023-12-20T22:22:31;101464.00;;;11.32;43.14
56040;BME280;43937;41.366;2.072;2023-12-20T22:24:57;101444.91;;;11.14;42.46
56040;BME280;43937;41.366;2.072;2023-12-20T22:29:10;101423.34;;;11.39;42.23
56040;BME280;43937;41.366;2.072;2023-12-20T22:37:08;101424.59;;;11.44;42.03
56040;BME280;43937;41.366;2.072;2023-12-20T22:40:27;101429.13;;;11.54;41.71
56040;BME280;43937;41.366;2.072;2023-12-20T22:42:52;101448.13;;;11.63;41.94
56040;BME280;43937;41.366;2.072;2023-12-20T22:45:18;101429.88;;;11.64;42.04
56040;BME280;43937;41.366;2.072;2023-12-20T22:56:22;101441.63;;;11.46;42.07
56040;BME280;43937;41.366;2.072;2023-12-20T22:58:50;101453.78;;;11.34;42.08
56040;BME280;43937;41.366;2.072;2023-12-20T23:01:16;101467.81;;;11.57;42.44
56040;BME280;43937;41.366;2.072;2023-12-20T23:04:50;101477.16;;;11.55;41.76
56040;BME280;43937;41.366;2.072;2023-12-20T23:08:45;101428.25;;;11.35;42.36
56040;BME280;43937;41.366;2.072;2023-12-20T23:11:10;101457.00;;;11.48;41.83
56040;BME280;43937;41.366;2.072;2023-12-20T23:19:32;101472.25;;;11.58;42.04
56040;BME280;43937;41.366;2.072;2023-12-20T23:23:07;101478.50;;;11.51;41.51
56040;BME280;43937;41.366;2.072;2023-12-20T23:27:06;101419.91;;;11.19;42.30
56040;BME280;43937;41.366;2.072;2023-12-20T23:33:17;101414.22;;;11.30;41.71
56040;BME280;43937;41.366;2.072;2023-12-20T23:39:41;101385.72;;;11.07;42.05
56040;BME280;43937;41.366;2.072;2023-12-20T23:42:07;101445.06;;;11.49;41.88
56040;BME280;43937;41.366;2.072;2023-12-20T23:44:33;101402.16;;;11.15;42.47
56040;BME280;43937;41.366;2.072;2023-12-20T23:51:07;101414.09;;;10.86;44.32
56040;BME280;43937;41.366;2.072;2023-12-20T23:56:13;101417.22;;;10.26;47.05
